Time;durP1;ratioP1;P1;durP2;ratioP2;P2;SDS_P1;SDS_P2;PMS_P1;PMS_P2;Temp;Humidity;BMP_temperature;BMP_pressure;BME280_temperature;BME280_humidity;BME280_pressure;Samples;Min_cycle;Max_cycle;Signal;HPM_P1;HPM_P2
2022/01/04 00:02:17;;;;;;;2.08;0.93;;;;;;;;;;5053842;28;20041;-54
2022/01/04 00:04:43;;;;;;;5.55;1.02;;;;;;;;;;5053989;28;20037;-52
2022/01/04 00:07:09;;;;;;;3.00;1.40;;;;;;;;;;5053869;28;20475;-51
2022/01/04 00:09:39;;;;;;;1.75;0.75;;;;;;;;;;5053837;28;20037;-51
2022/01/04 00:14:51;;;;;;;3.35;0.90;;;;;;;;;;5053831;28;20040;-53
2022/01/04 00:17:17;;;;;;;2.53;1.00;;;;;;;;;;5053731;28;20029;-53
2022/01/04 00:19:43;;;;;;;2.00;0.98;;;;;;;;;;5053778;28;20040;-51
2022/01/04 00:22:09;;;;;;;2.60;1.00;;;;;;;;;;5053730;28;20061;-53
2022/01/04 00:24:36;;;;;;;3.33;1.20;;;16.60;87.70;;;;;;5053618;28;20090;-53
2022/01/04 00:27:02;;;;;;;3.38;1.05;;;;;;;;;;5053672;28;20029;-53
2022/01/04 00:29:28;;;;;;;2.63;1.20;;;;;;;;;;5053550;28;20048;-53
2022/01/04 00:31:54;;;;;;;2.10;1.10;;;;;;;;;;5053775;28;20025;-50
2022/01/04 00:34:20;;;;;;;2.25;0.90;;;;;;;;;;5053481;28;20029;-51
2022/01/04 00:36:46;;;;;;;2.35;1.00;;;;;;;;;;5053633;28;20068;-52
2022/01/04 00:39:12;;;;;;;1.60;0.90;;;;;;;;;;5053425;28;20104;-50
2022/01/04 00:41:38;;;;;;;3.20;0.82;;;;;;;;;;5053334;28;20464;-52
2022/01/04 00:44:04;;;;;;;1.70;0.73;;;;;;;;;;5053534;28;20036;-53
2022/01/04 00:46:31;;;;;;;2.70;0.90;;;;;;;;;;5053269;28;20033;-51
2022/01/04 00:49:09;;;;;;;1.85;0.75;;;;;;;;;;5053359;28;20037;-54
2022/01/04 00:51:36;;;;;;;2.05;1.08;;;;;;;;;;5053212;28;20388;-54
2022/01/04 00:54:02;;;;;;;1.10;0.70;;;;;;;;;;5053076;28;20033;-51
2022/01/04 00:56:28;;;;;;;1.70;0.80;;;;;;;;;;5053020;28;20079;-52
2022/01/04 00:58:54;;;;;;;2.17;0.77;;;;;;;;;;5053299;28;20399;-52
2022/01/04 01:01:20;;;;;;;3.80;1.10;;;;;;;;;;5052654;28;20027;-51
2022/01/04 01:03:46;;;;;;;2.97;1.13;;;;;;;;;;5052944;28;20068;-51
2022/01/04 01:06:12;;;;;;;2.47;1.08;;;;;;;;;;5052859;28;20060;-53
2022/01/04 01:08:38;;;;;;;2.40;0.70;;;;;;;;;;5052363;28;20044;-52
2022/01/04 01:11:06;;;;;;;3.05;0.93;;;16.50;85.10;;;;;;5052737;28;20025;-51
2022/01/04 01:13:32;;;;;;;3.97;1.00;;;;;;;;;;5052775;28;20490;-53
2022/01/04 01:15:58;;;;;;;2.30;0.95;;;;;;;;;;5052771;28;20062;-51
2022/01/04 01:18:24;;;;;;;1.77;0.70;;;;;;;;;;5052596;28;20064;-53
2022/01/04 01:20:50;;;;;;;1.50;0.52;;;;;;;;;;5052652;28;20024;-53
2022/01/04 01:23:17;;;;;;;3.47;0.88;;;16.50;88.70;;;;;;5052478;28;20033;-52
2022/01/04 01:25:43;;;;;;;1.50;1.17;;;;;;;;;;5052578;28;20157;-54
2022/01/04 01:28:09;;;;;;;5.40;0.88;;;;;;;;;;5052388;28;20029;-53
2022/01/04 01:30:38;;;;;;;1.58;0.70;;;;;;;;;;5052446;28;20036;-54
2022/01/04 01:33:04;;;;;;;1.60;0.60;;;;;;;;;;5052803;28;20021;-50
2022/01/04 01:35:31;;;;;;;1.13;0.70;;;;;;;;;;5052438;28;20032;-53
2022/01/04 01:37:57;;;;;;;1.45;0.77;;;;;;;;;;5052401;28;20021;-53
2022/01/04 01:40:23;;;;;;;1.48;0.70;;;;;;;;;;5052575;28;20024;-51
2022/01/04 01:42:49;;;;;;;1.08;0.70;;;;;;;;;;5052286;28;20501;-54
2022/01/04 01:45:16;;;;;;;2.75;1.00;;;16.40;85.50;;;;;;5052309;28;20037;-51
2022/01/04 01:47:43;;;;;;;1.33;0.77;;;;;;;;;;5052475;28;20113;-52
2022/01/04 01:50:09;;;;;;;1.80;0.70;;;16.40;87.20;;;;;;5052253;28;20037;-50
2022/01/04 01:52:35;;;;;;;2.05;0.75;;;;;;;;;;5052486;28;20100;-52
2022/01/04 01:55:01;;;;;;;3.70;0.80;;;;;;;;;;5052231;28;20476;-52
2022/01/04 01:57:27;;;;;;;1.73;0.75;;;;;;;;;;5052096;28;20028;-51
2022/01/04 01:59:53;;;;;;;1.13;0.90;;;;;;;;;;5052065;28;20078;-54
2022/01/04 02:02:19;;;;;;;1.15;0.80;;;;;;;;;;5051801;28;20056;-51
2022/01/04 02:04:45;;;;;;;1.00;0.90;;;;;;;;;;5052025;28;20050;-51
2022/01/04 02:07:12;;;;;;;1.85;0.70;;;16.30;88.20;;;;;;5052081;28;20487;-51
2022/01/04 02:09:41;;;;;;;1.63;0.70;;;;;;;;;;5051937;28;20039;-53
2022/01/04 02:12:09;;;;;;;1.35;0.85;;;16.30;86.80;;;;;;5052288;28;20079;-53
2022/01/04 02:14:35;;;;;;;1.67;0.70;;;;;;;;;;5052204;28;20052;-51
2022/01/04 02:17:01;;;;;;;1.58;0.65;;;;;;;;;;5051928;28;20025;-51
2022/01/04 02:19:26;;;;;;;1.35;0.80;;;;;;;;;;5052036;28;20032;-51
2022/01/04 02:21:52;;;;;;;1.55;0.80;;;;;;;;;;5055937;28;20025;-50
2022/01/04 02:24:58;;;;;;;0.65;0.65;;;16.20;83.10;;;;;;5055881;28;20422;-52
2022/01/04 02:27:25;;;;;;;1.60;0.80;;;;;;;;;;5055778;28;20542;-50
2022/01/04 02:29:51;;;;;;;1.10;0.90;;;;;;;;;;5056035;28;20037;-51
2022/01/04 02:32:17;;;;;;;0.70;0.70;;;16.30;85.60;;;;;;5055802;28;20047;-51
2022/01/04 02:34:49;;;;;;;2.28;0.85;;;16.30;83.10;;;;;;5055684;28;20025;-50
2022/01/04 02:37:21;;;;;;;0.68;0.60;;;16.30;89.00;;;;;;5055947;28;20025;-51
2022/01/04 02:39:47;;;;;;;1.15;0.70;;;;;;;;;;5055712;28;20028;-50
2022/01/04 02:42:13;;;;;;;1.10;0.70;;;;;;;;;;5055584;28;20540;-53
2022/01/04 02:44:40;;;;;;;2.88;0.95;;;16.20;87.90;;;;;;5055503;28;20083;-52
2022/01/04 02:47:06;;;;;;;1.75;0.80;;;;;;;;;;5054357;28;20545;-50
2022/01/04 02:49:32;;;;;;;1.27;0.63;;;;;;;;;;5055345;28;20095;-53
2022/01/04 02:51:58;;;;;;;0.95;0.85;;;;;;;;;;5055402;28;20056;-50
2022/01/04 02:54:24;;;;;;;0.70;0.70;;;;;;;;;;5055308;28;20025;-51
2022/01/04 02:56:50;;;;;;;1.92;0.88;;;;;;;;;;5055317;28;20429;-50
2022/01/04 02:59:16;;;;;;;1.83;0.80;;;;;;;;;;5055514;28;20021;-53
2022/01/04 03:01:42;;;;;;;1.15;0.95;;;;;;;;;;5054910;28;20037;-50
2022/01/04 03:04:09;;;;;;;2.03;1.02;;;;;;;;;;5055188;28;20114;-51
2022/01/04 03:06:35;;;;;;;1.98;0.93;;;16.20;86.70;;;;;;5055230;28;20035;-54
2022/01/04 03:09:01;;;;;;;1.30;0.68;;;;;;;;;;5055077;28;20036;-51
2022/01/04 03:11:27;;;;;;;1.75;0.77;;;;;;;;;;5055037;28;20029;-50
2022/01/04 03:13:53;;;;;;;1.65;0.80;;;;;;;;;;5055226;28;20027;-53
2022/01/04 03:16:19;;;;;;;1.63;1.08;;;;;;;;;;5055004;28;20021;-52
2022/01/04 03:19:06;;;;;;;1.42;0.90;;;;;;;;;;5054848;28;20483;-50
2022/01/04 03:21:33;;;;;;;1.42;0.98;;;16.10;89.30;;;;;;5055216;28;20387;-51
2022/01/04 03:23:59;;;;;;;1.13;0.90;;;;;;;;;;5055069;28;20031;-53
2022/01/04 03:26:25;;;;;;;1.25;0.80;;;;;;;;;;5054867;28;20033;-50
2022/01/04 03:28:51;;;;;;;0.77;0.70;;;;;;;;;;5054843;28;20483;-53
2022/01/04 03:31:17;;;;;;;0.63;0.63;;;;;;;;;;5054387;28;20053;-51
2022/01/04 03:33:43;;;;;;;0.65;0.50;;;;;;;;;;5054600;28;20035;-51
2022/01/04 03:36:09;;;;;;;2.38;0.90;;;;;;;;;;5054551;28;20047;-51
2022/01/04 03:38:35;;;;;;;1.42;0.80;;;;;;;;;;5054608;28;20040;-51
2022/01/04 03:41:01;;;;;;;1.60;0.80;;;;;;;;;;5054472;28;20025;-49
2022/01/04 03:43:27;;;;;;;1.15;0.50;;;;;;;;;;5054606;28;20032;-49
2022/01/04 03:45:53;;;;;;;0.80;0.52;;;;;;;;;;5054389;28;20025;-49
2022/01/04 03:48:19;;;;;;;0.90;0.50;;;;;;;;;;5054289;28;20041;-49
2022/01/04 03:50:45;;;;;;;1.17;0.57;;;;;;;;;;5054296;28;20048;-50
2022/01/04 03:53:11;;;;;;;0.93;0.70;;;;;;;;;;5054336;28;20174;-49
2022/01/04 03:55:37;;;;;;;0.82;0.60;;;;;;;;;;5054285;28;20025;-48
2022/01/04 03:58:03;;;;;;;0.95;0.70;;;;;;;;;;5054227;28;20032;-50
2022/01/04 04:00:29;;;;;;;1.10;0.60;;;;;;;;;;5054264;28;20025;-49
2022/01/04 04:02:55;;;;;;;1.92;0.70;;;;;;;;;;5053937;28;20531;-49
2022/01/04 04:05:21;;;;;;;1.05;0.60;;;;;;;;;;5054057;28;20048;-51
2022/01/04 04:07:47;;;;;;;0.88;0.70;;;;;;;;;;5053880;28;20448;-49
2022/01/04 04:10:13;;;;;;;1.10;0.70;;;;;;;;;;5053979;28;20029;-50
2022/01/04 04:12:39;;;;;;;1.10;0.77;;;;;;;;;;5053910;28;20024;-49
2022/01/04 04:15:08;;;;;;;1.20;0.55;;;16.10;86.80;;;;;;5053832;28;20648;-49
2022/01/04 04:17:35;;;;;;;2.13;0.90;;;;;;;;;;5054097;28;20105;-49
2022/01/04 04:20:01;;;;;;;0.63;0.63;;;;;;;;;;5053849;28;20029;-48
2022/01/04 04:22:27;;;;;;;1.25;0.60;;;;;;;;;;5053791;28;20044;-49
2022/01/04 04:24:53;;;;;;;1.13;0.80;;;;;;;;;;5053566;28;20411;-48
2022/01/04 04:27:19;;;;;;;0.73;0.60;;;;;;;;;;5053686;28;20051;-49
2022/01/04 04:29:45;;;;;;;1.27;0.80;;;;;;;;;;5053517;28;20055;-48
2022/01/04 04:32:11;;;;;;;0.73;0.52;;;;;;;;;;5053551;28;20062;-49
2022/01/04 04:34:37;;;;;;;2.17;0.93;;;;;;;;;;5053490;28;20032;-48
2022/01/04 04:37:03;;;;;;;1.52;0.88;;;16.00;87.30;;;;;;5053466;28;20025;-49
2022/01/04 04:39:29;;;;;;;0.63;0.50;;;;;;;;;;5053424;28;20028;-49
2022/01/04 04:41:55;;;;;;;0.82;0.55;;;;;;;;;;5053113;28;20172;-49
2022/01/04 04:44:21;;;;;;;1.65;0.90;;;;;;;;;;5053038;28;20021;-49
2022/01/04 04:46:48;;;;;;;1.08;0.85;;;;;;;;;;5053288;28;20376;-49
2022/01/04 04:49:14;;;;;;;1.17;0.80;;;;;;;;;;5053131;28;20029;-50
2022/01/04 04:51:40;;;;;;;1.40;0.70;;;;;;;;;;5053130;28;20044;-50
2022/01/04 04:54:06;;;;;;;2.05;0.90;;;;;;;;;;5053307;28;20095;-48
2022/01/04 04:56:34;;;;;;;1.02;0.65;;;;;;;;;;5053117;28;20091;-50
2022/01/04 04:59:00;;;;;;;1.00;0.90;;;;;;;;;;5052971;28;20106;-49
2022/01/04 05:01:26;;;;;;;0.82;0.60;;;;;;;;;;5052694;28;20025;-51
2022/01/04 05:03:52;;;;;;;1.50;0.68;;;;;;;;;;5052966;28;20129;-49
2022/01/04 05:06:19;;;;;;;0.98;0.70;;;;;;;;;;5052904;28;20028;-50
2022/01/04 05:08:45;;;;;;;1.85;0.73;;;;;;;;;;5052830;28;20229;-48
2022/01/04 05:11:11;;;;;;;0.80;0.60;;;;;;;;;;5052791;28;20108;-49
2022/01/04 05:13:37;;;;;;;1.30;0.80;;;;;;;;;;5052831;28;20043;-47
2022/01/04 05:16:03;;;;;;;1.02;0.60;;;;;;;;;;5052758;28;20033;-50
2022/01/04 05:18:29;;;;;;;2.50;0.60;;;;;;;;;;5052754;28;20107;-49
2022/01/04 05:20:55;;;;;;;0.80;0.60;;;;;;;;;;5052699;28;20100;-49
2022/01/04 05:23:21;;;;;;;1.55;0.80;;;;;;;;;;5052590;28;20399;-50
2022/01/04 05:25:46;;;;;;;1.33;0.80;;;;;;;;;;5052876;28;20021;-49
2022/01/04 05:28:12;;;;;;;1.45;0.80;;;;;;;;;;5052382;28;20033;-50
2022/01/04 05:30:38;;;;;;;1.38;0.77;;;;;;;;;;5052512;28;20033;-49
2022/01/04 05:33:04;;;;;;;1.17;0.73;;;;;;;;;;5052526;28;20112;-49
2022/01/04 05:35:30;;;;;;;1.85;1.02;;;;;;;;;;5052480;28;20450;-50
2022/01/04 05:37:56;;;;;;;1.67;0.60;;;;;;;;;;5052369;28;20029;-50
2022/01/04 05:40:22;;;;;;;0.63;0.60;;;;;;;;;;5052297;28;20104;-49
2022/01/04 05:42:48;;;;;;;0.95;0.45;;;;;;;;;;5052265;28;20025;-50
2022/01/04 05:45:14;;;;;;;1.02;0.50;;;;;;;;;;5052305;28;20036;-49
2022/01/04 05:47:40;;;;;;;1.58;0.85;;;;;;;;;;5052166;28;20032;-49
2022/01/04 05:50:07;;;;;;;1.13;0.50;;;16.00;86.80;;;;;;5052284;28;20068;-49
2022/01/04 05:52:34;;;;;;;2.22;0.75;;;;;;;;;;5052166;28;20025;-48
2022/01/04 05:54:59;;;;;;;1.40;0.98;;;;;;;;;;5052169;28;20036;-49
2022/01/04 05:57:26;;;;;;;0.80;0.63;;;;;;;;;;5052113;28;20025;-49
2022/01/04 05:59:51;;;;;;;0.95;0.70;;;;;;;;;;5052210;28;20032;-49
2022/01/04 06:02:17;;;;;;;2.20;1.15;;;;;;;;;;5051917;28;20049;-50
2022/01/04 06:04:43;;;;;;;3.75;0.90;;;;;;;;;;5052121;28;20036;-49
2022/01/04 06:07:10;;;;;;;1.05;0.70;;;;;;;;;;5052032;28;20032;-48
2022/01/04 06:09:42;;;;;;;1.73;0.60;;;;;;;;;;5052146;28;20044;-50
2022/01/04 06:14:55;;;;;;;1.00;0.57;;;16.20;90.00;;;;;;5052023;28;20040;-50
2022/01/04 06:17:25;;;;;;;2.42;0.70;;;16.30;90.00;;;;;;5051922;28;20102;-49
2022/01/04 06:19:51;;;;;;;0.93;0.50;;;;;;;;;;5052279;28;20399;-51
2022/01/04 06:22:17;;;;;;;1.27;0.60;;;;;;;;;;5051837;28;20029;-48
2022/01/04 06:24:43;;;;;;;0.95;0.52;;;;;;;;;;5051889;28;20029;-49
2022/01/04 06:27:10;;;;;;;1.30;0.55;;;16.50;86.20;;;;;;5052159;28;20112;-49
2022/01/04 06:29:36;;;;;;;1.02;0.80;;;;;;;;;;5052041;28;20456;-48
2022/01/04 06:32:03;;;;;;;1.65;0.68;;;;;;;;;;5051834;28;20029;-48
2022/01/04 06:34:29;;;;;;;1.95;1.00;;;;;;;;;;5051800;28;20063;-49
2022/01/04 06:36:55;;;;;;;1.67;0.80;;;;;;;;;;5051733;28;20017;-48
2022/01/04 06:39:21;;;;;;;1.88;0.65;;;;;;;;;;5051781;28;20104;-49
2022/01/04 06:41:47;;;;;;;0.93;0.70;;;;;;;;;;5052006;28;20025;-49
2022/01/04 06:44:13;;;;;;;1.67;0.80;;;;;;;;;;5051793;28;20467;-50
2022/01/04 06:46:45;;;;;;;1.08;0.90;;;;;;;;;;5051811;28;20108;-50
2022/01/04 06:49:11;;;;;;;0.80;0.60;;;;;;;;;;5051734;28;20529;-50
2022/01/04 06:51:37;;;;;;;1.40;0.82;;;;;;;;;;5051673;28;20112;-49
2022/01/04 06:54:03;;;;;;;0.80;0.60;;;;;;;;;;5051597;28;20391;-48
2022/01/04 06:56:29;;;;;;;1.73;1.02;;;;;;;;;;5051604;28;20029;-49
2022/01/04 06:58:55;;;;;;;3.08;1.17;;;;;;;;;;5051854;28;20022;-49
2022/01/04 07:01:22;;;;;;;0.65;0.65;;;;;;;;;;5051412;28;20025;-49
2022/01/04 07:03:48;;;;;;;1.52;1.10;;;;;;;;;;5051669;28;20037;-50
2022/01/04 07:06:14;;;;;;;0.90;0.60;;;;;;;;;;5052992;28;20100;-48
2022/01/04 07:08:40;;;;;;;1.77;0.90;;;;;;;;;;5055064;28;20395;-49
2022/01/04 07:11:06;;;;;;;0.95;0.80;;;;;;;;;;5055132;28;20029;-50
2022/01/04 07:13:32;;;;;;;1.58;0.90;;;;;;;;;;5054946;28;20039;-48
2022/01/04 07:15:58;;;;;;;1.38;1.00;;;;;;;;;;5054746;28;20024;-48
2022/01/04 07:18:24;;;;;;;1.77;1.02;;;;;;;;;;5054694;28;20163;-48
2022/01/04 07:20:50;;;;;;;0.93;0.70;;;;;;;;;;5054751;28;20043;-49
2022/01/04 07:23:16;;;;;;;1.08;1.00;;;;;;;;;;5054709;28;20033;-48
2022/01/04 07:25:42;;;;;;;2.03;1.05;;;;;;;;;;5054653;28;20036;-49
2022/01/04 07:28:09;;;;;;;1.20;0.80;;;17.10;88.50;;;;;;5054457;28;20487;-51
2022/01/04 07:30:35;;;;;;;1.98;0.95;;;;;;;;;;5054477;28;20021;-49
2022/01/04 07:33:01;;;;;;;4.72;0.93;;;;;;;;;;5054474;28;20033;-51
2022/01/04 07:35:27;;;;;;;2.70;1.02;;;;;;;;;;5054355;28;20025;-51
2022/01/04 07:37:53;;;;;;;5.13;1.52;;;;;;;;;;5054263;28;20399;-49
2022/01/04 07:40:20;;;;;;;1.50;1.17;;;;;;;;;;5054472;28;20037;-50
2022/01/04 07:42:46;;;;;;;1.55;1.23;;;17.30;88.00;;;;;;5054741;28;20057;-49
2022/01/04 07:45:13;;;;;;;2.42;0.90;;;;;;;;;;5054283;28;20394;-49
2022/01/04 07:47:41;;;;;;;2.83;1.10;;;17.40;85.30;;;;;;5053703;28;20029;-49
2022/01/04 07:50:08;;;;;;;3.42;1.20;;;17.30;87.90;;;;;;5052398;28;20094;-51
2022/01/04 07:52:35;;;;;;;2.38;1.45;;;;;;;;;;5052232;28;20418;-50
2022/01/04 07:55:01;;;;;;;1.63;1.13;;;;;;;;;;5052270;28;20065;-50
2022/01/04 07:57:27;;;;;;;2.30;1.13;;;;;;;;;;5052217;28;20048;-50
2022/01/04 07:59:53;;;;;;;2.97;1.17;;;;;;;;;;5052102;28;20029;-52
2022/01/04 08:02:19;;;;;;;2.90;1.27;;;;;;;;;;5051967;28;20045;-50
2022/01/04 08:04:45;;;;;;;3.00;1.30;;;;;;;;;;5053269;28;20052;-49
2022/01/04 08:07:11;;;;;;;1.38;1.13;;;;;;;;;;5053808;28;20025;-50
2022/01/04 08:09:37;;;;;;;3.50;1.13;;;;;;;;;;5053678;28;20499;-50
2022/01/04 08:12:04;;;;;;;1.95;1.10;;;17.50;84.60;;;;;;5053660;28;20111;-50
2022/01/04 08:14:30;;;;;;;1.20;0.98;;;;;;;;;;5053899;28;20060;-49
2022/01/04 08:16:56;;;;;;;2.75;1.55;;;;;;;;;;5053124;28;20090;-49
2022/01/04 08:19:22;;;;;;;3.97;1.45;;;;;;;;;;5053047;28;20100;-48
2022/01/04 08:21:48;;;;;;;2.10;1.30;;;;;;;;;;5053541;28;20029;-49
2022/01/04 08:24:14;;;;;;;3.22;1.60;;;;;;;;;;5053685;28;20387;-49
2022/01/04 08:26:40;;;;;;;2.08;1.48;;;;;;;;;;5053391;28;20029;-49
2022/01/04 08:29:06;;;;;;;3.67;1.30;;;;;;;;;;5053187;28;20112;-49
2022/01/04 08:31:32;;;;;;;3.58;1.60;;;;;;;;;;5053575;28;20224;-49
2022/01/04 08:33:59;;;;;;;2.30;1.38;;;;;;;;;;5053533;28;20025;-48
2022/01/04 08:36:29;;;;;;;2.83;1.30;;;;;;;;;;5053887;28;20119;-49
2022/01/04 08:38:56;;;;;;;2.15;1.10;;;17.30;88.00;;;;;;5053854;28;20035;-49
2022/01/04 08:41:22;;;;;;;4.07;1.50;;;;;;;;;;5053667;28;20025;-50
2022/01/04 08:43:48;;;;;;;3.80;1.40;;;;;;;;;;5053669;28;20021;-49
2022/01/04 08:46:14;;;;;;;1.40;1.10;;;;;;;;;;5053322;28;20441;-49
2022/01/04 08:48:40;;;;;;;1.83;1.15;;;;;;;;;;5053297;28;20070;-49
2022/01/04 08:51:06;;;;;;;1.98;1.45;;;;;;;;;;5053167;28;20052;-48
2022/01/04 08:53:32;;;;;;;1.58;1.30;;;;;;;;;;5053160;28;20048;-49
2022/01/04 08:56:01;;;;;;;1.38;1.10;;;;;;;;;;5053149;28;20021;-49
2022/01/04 08:58:28;;;;;;;3.05;1.60;;;17.40;86.10;;;;;;5053132;28;20025;-47
2022/01/04 09:00:55;;;;;;;2.28;1.35;;;;;;;;;;5053172;28;20498;-48
2022/01/04 09:03:21;;;;;;;2.22;1.17;;;;;;;;;;5052961;28;20625;-50
2022/01/04 09:05:47;;;;;;;1.73;1.30;;;;;;;;;;5053163;28;20379;-49
2022/01/04 09:08:13;;;;;;;2.38;1.40;;;;;;;;;;5052751;28;20383;-50
2022/01/04 09:10:39;;;;;;;1.98;1.27;;;;;;;;;;5052899;28;20036;-50
2022/01/04 09:13:11;;;;;;;3.20;1.38;;;;;;;;;;5052849;28;20025;-49
2022/01/04 09:20:51;;;;;;;3.97;1.40;;;;;;;;;;5053029;28;20082;-50
2022/01/04 09:23:20;;;;;;;1.73;0.93;;;17.50;87.20;;;;;;5052721;28;20025;-51
2022/01/04 09:25:48;;;;;;;1.70;1.25;;;17.60;87.50;;;;;;5052677;28;20036;-49
2022/01/04 09:28:14;;;;;;;2.80;1.30;;;;;;;;;;5052423;28;20037;-49
2022/01/04 09:30:43;;;;;;;3.08;1.70;;;17.60;87.70;;;;;;5052469;28;20028;-49
2022/01/04 09:33:09;;;;;;;1.27;1.17;;;;;;;;;;5052665;28;20075;-50
2022/01/04 09:35:36;;;;;;;5.40;1.48;;;;;;;;;;5052495;28;20029;-49
2022/01/04 09:38:03;;;;;;;1.60;1.33;;;17.50;85.40;;;;;;5052766;28;20055;-49
2022/01/04 09:40:29;;;;;;;2.67;1.20;;;;;;;;;;5052403;28;20021;-50
2022/01/04 09:42:55;;;;;;;1.20;1.10;;;;;;;;;;5052383;28;20033;-49
2022/01/04 09:45:21;;;;;;;2.17;1.00;;;;;;;;;;5052330;28;20029;-50
2022/01/04 09:47:47;;;;;;;2.78;1.23;;;;;;;;;;5052080;28;20028;-52
2022/01/04 09:50:13;;;;;;;2.22;1.35;;;;;;;;;;5051979;28;20124;-47
2022/01/04 09:52:44;;;;;;;1.98;0.98;;;17.70;87.10;;;;;;5052045;28;20464;-49
2022/01/04 09:55:13;;;;;;;2.10;1.17;;;17.70;84.90;;;;;;5051881;28;20108;-50
2022/01/04 09:57:39;;;;;;;5.97;1.20;;;;;;;;;;5052084;28;20502;-50
2022/01/04 10:00:06;;;;;;;1.10;0.80;;;17.60;87.40;;;;;;5052211;28;20104;-49
2022/01/04 10:02:32;;;;;;;1.67;1.00;;;;;;;;;;5051875;28;20048;-52
2022/01/04 10:05:18;;;;;;;1.27;0.90;;;17.60;81.80;;;;;;5052147;28;20037;-51
2022/01/04 10:07:45;;;;;;;3.22;1.20;;;17.60;84.80;;;;;;5052074;28;20033;-50
2022/01/04 10:10:12;;;;;;;3.28;1.10;;;17.60;88.10;;;;;;5052253;28;20029;-50
2022/01/04 10:13:01;;;;;;;4.30;0.80;;;17.70;81.80;;;;;;5052113;28;20468;-50
2022/01/04 10:15:29;;;;;;;2.80;1.08;;;17.60;81.90;;;;;;5052062;28;20108;-50
2022/01/04 10:17:56;;;;;;;8.30;1.00;;;17.70;84.20;;;;;;5052039;28;20036;-50
2022/01/04 10:20:22;;;;;;;1.50;1.10;;;;;;;;;;5052028;28;20063;-50
2022/01/04 10:22:50;;;;;;;2.65;0.90;;;;;;;;;;5051974;28;20032;-50
2022/01/04 10:25:17;;;;;;;1.70;0.80;;;;;;;;;;5051954;28;20368;-50
2022/01/04 10:27:52;;;;;;;1.08;0.98;;;17.20;87.40;;;;;;5051931;28;20025;-50
2022/01/04 10:30:30;;;;;;;3.28;0.75;;;17.60;81.80;;;;;;5052209;28;20021;-50
2022/01/04 10:33:09;;;;;;;2.80;0.80;;;17.60;81.60;;;;;;5052220;28;20039;-50
2022/01/04 10:35:40;;;;;;;2.80;1.13;;;17.60;81.80;;;;;;5051853;28;20479;-48
2022/01/04 10:38:19;;;;;;;1.33;0.80;;;17.60;81.70;;;;;;5052053;28;20056;-49
2022/01/04 10:40:49;;;;;;;2.55;1.05;;;17.60;87.60;;;;;;5052422;28;20040;-50
2022/01/04 10:43:23;;;;;;;1.40;0.73;;;17.60;87.70;;;;;;5055768;28;20115;-50
2022/01/04 10:45:50;;;;;;;2.35;0.90;;;17.60;86.90;;;;;;5055819;28;20108;-50
2022/01/04 10:48:32;;;;;;;3.20;1.05;;;17.60;81.60;;;;;;5055459;28;20032;-51
2022/01/04 10:51:24;;;;;;;2.78;0.80;;;17.60;81.70;;;;;;5055896;28;20402;-49
2022/01/04 10:53:52;;;;;;;2.42;0.68;;;17.50;87.60;;;;;;5052710;28;20087;-50
2022/01/04 10:56:31;;;;;;;5.78;1.08;;;17.50;87.50;;;;;;5055554;28;20525;-50
2022/01/04 10:58:57;;;;;;;3.38;1.10;;;;;;;;;;5055478;28;20029;-50
2022/01/04 11:01:26;;;;;;;2.72;0.90;;;17.60;87.70;;;;;;5055128;28;20029;-49
2022/01/04 11:04:01;;;;;;;3.45;0.88;;;17.70;81.50;;;;;;5055511;28;20033;-50
2022/01/04 11:06:27;;;;;;;7.82;1.63;;;;;;;;;;5055523;28;20032;-48
2022/01/04 11:08:53;;;;;;;2.40;1.20;;;;;;;;;;5055130;28;20040;-50
2022/01/04 11:11:19;;;;;;;3.80;0.77;;;;;;;;;;5055481;28;20079;-50
2022/01/04 11:13:48;;;;;;;1.70;0.80;;;;;;;;;;5055018;28;20028;-50
2022/01/04 11:16:14;;;;;;;3.20;0.90;;;17.70;85.40;;;;;;5055053;28;20032;-49
2022/01/04 11:18:41;;;;;;;2.10;1.23;;;;;;;;;;5055022;28;20104;-48
2022/01/04 11:21:12;;;;;;;6.40;1.55;;;17.60;87.50;;;;;;5054983;28;20036;-49
2022/01/04 11:23:38;;;;;;;4.47;0.80;;;;;;;;;;5055284;28;20025;-50
2022/01/04 11:26:05;;;;;;;1.83;0.75;;;17.60;87.30;;;;;;5054853;28;20025;-51
2022/01/04 11:28:31;;;;;;;4.95;0.85;;;;;;;;;;5054846;28;20108;-49
2022/01/04 11:31:34;;;;;;;2.00;0.68;;;17.60;81.30;;;;;;5055109;28;20064;-49
2022/01/04 11:34:23;;;;;;;1.75;0.65;;;17.60;87.20;;;;;;5054823;28;20029;-50
2022/01/04 11:36:50;;;;;;;3.17;1.15;;;17.70;85.70;;;;;;5054795;28;20025;-50
2022/01/04 11:39:32;;;;;;;1.52;0.73;;;17.60;81.30;;;;;;5054692;28;20372;-47
2022/01/04 11:42:03;;;;;;;1.35;0.80;;;17.60;87.40;;;;;;5054800;28;20021;-48
2022/01/04 11:44:31;;;;;;;1.75;1.15;;;17.60;87.40;;;;;;5054701;28;20029;-48
2022/01/04 11:47:08;;;;;;;3.72;0.70;;;17.70;81.80;;;;;;5054529;28;20025;-49
2022/01/04 11:49:36;;;;;;;1.35;0.80;;;17.60;87.70;;;;;;5054664;28;20368;-48
2022/01/04 11:52:04;;;;;;;3.03;0.70;;;17.60;87.80;;;;;;5054145;28;20554;-49
2022/01/04 11:54:31;;;;;;;3.28;1.05;;;17.70;85.70;;;;;;5054311;28;20029;-49
2022/01/04 11:57:06;;;;;;;2.88;1.00;;;17.70;81.80;;;;;;5054340;28;20116;-48
2022/01/04 11:59:35;;;;;;;3.08;0.77;;;17.80;87.70;;;;;;5054363;28;20379;-49
2022/01/04 12:02:31;;;;;;;1.58;0.63;;;17.70;81.70;;;;;;5054292;28;20446;-49
2022/01/04 12:04:59;;;;;;;1.70;0.70;;;17.80;87.80;;;;;;5054153;28;20021;-49
2022/01/04 12:07:47;;;;;;;1.60;0.70;;;17.80;81.70;;;;;;5054477;28;20019;-50
2022/01/04 12:10:22;;;;;;;2.75;0.80;;;17.70;81.90;;;;;;5054205;28;20071;-48
2022/01/04 12:12:59;;;;;;;4.18;0.60;;;17.70;81.70;;;;;;5054071;28;20078;-49
2022/01/04 12:15:51;;;;;;;2.75;0.90;;;17.80;81.80;;;;;;5054047;28;20029;-48
2022/01/04 12:18:34;;;;;;;1.92;0.90;;;17.80;81.80;;;;;;5047106;28;20025;-49
2022/01/04 12:21:17;;;;;;;1.92;0.70;;;17.90;81.90;;;;;;5053829;28;20108;-49
2022/01/04 12:23:44;;;;;;;1.13;0.73;;;17.80;87.60;;;;;;5053904;28;20385;-48
2022/01/04 12:26:16;;;;;;;1.00;0.60;;;;;;;;;;5053779;28;20476;-49
2022/01/04 12:28:58;;;;;;;2.30;0.65;;;17.80;81.80;;;;;;5053707;28;20048;-48
2022/01/04 12:31:24;;;;;;;4.07;1.05;;;;;;;;;;5053714;28;20399;-49
2022/01/04 12:33:50;;;;;;;3.75;0.95;;;17.80;87.80;;;;;;5053595;28;20025;-49
2022/01/04 12:36:34;;;;;;;2.10;0.50;;;17.80;81.90;;;;;;5053608;28;20036;-48
2022/01/04 12:39:05;;;;;;;1.58;0.50;;;17.80;87.90;;;;;;5053635;28;20487;-48
2022/01/04 12:41:32;;;;;;;2.83;0.68;;;17.70;85.50;;;;;;5053491;28;20021;-50
2022/01/04 12:43:59;;;;;;;2.42;0.80;;;17.80;87.40;;;;;;5053404;28;20029;-47
2022/01/04 12:46:29;;;;;;;1.52;0.57;;;17.80;88.00;;;;;;5053350;28;20037;-47
2022/01/04 12:48:56;;;;;;;;;;;18.70;89.30;;;;;;5053782;28;20120;-48
2022/01/04 12:51:37;;;;;;;3.03;1.08;;;17.70;81.90;;;;;;5053376;28;19911;-47
2022/01/04 12:54:03;;;;;;;2.53;0.68;;;;;;;;;;5053372;28;20108;-49
2022/01/04 12:56:30;;;;;;;2.08;0.75;;;;;;;;;;5053325;28;20056;-49
2022/01/04 12:58:56;;;;;;;1.30;0.47;;;17.80;88.30;;;;;;5053101;28;20454;-47
2022/01/04 13:01:24;;;;;;;3.60;0.98;;;17.60;88.20;;;;;;5052887;28;20048;-47
2022/01/04 13:03:50;;;;;;;2.47;0.73;;;;;;;;;;5052418;28;20033;-47
2022/01/04 13:06:16;;;;;;;3.67;0.80;;;;;;;;;;5053066;28;20047;-48
2022/01/04 13:08:51;;;;;;;1.65;0.70;;;17.60;88.10;;;;;;5053122;28;20454;-47
2022/01/04 13:11:17;;;;;;;2.30;0.77;;;;;;;;;;5052951;28;20016;-49
2022/01/04 13:13:43;;;;;;;2.10;0.60;;;;;;;;;;5053195;28;20060;-47
2022/01/04 13:16:22;;;;;;;2.58;0.60;;;17.60;82.10;;;;;;5052886;28;20025;-48
2022/01/04 13:18:48;;;;;;;1.05;0.45;;;;;;;;;;5053072;28;20024;-48
2022/01/04 13:21:14;;;;;;;0.93;0.45;;;;;;;;;;5053022;28;20383;-48
2022/01/04 13:23:42;;;;;;;1.92;0.70;;;17.60;88.00;;;;;;5052701;28;20089;-49
2022/01/04 13:26:14;;;;;;;2.10;0.80;;;;;;;;;;5052790;28;20021;-47
2022/01/04 13:28:41;;;;;;;2.40;0.40;;;17.70;85.80;;;;;;5052626;28;20119;-48
2022/01/04 13:31:07;;;;;;;2.08;0.60;;;;;;;;;;5052760;28;20059;-49
2022/01/04 13:33:36;;;;;;;3.22;0.52;;;;;;;;;;5052683;28;20037;-48
2022/01/04 13:36:07;;;;;;;1.35;0.45;;;17.70;88.10;;;;;;5052620;28;20029;-49
2022/01/04 13:38:36;;;;;;;2.42;0.57;;;;;;;;;;5052619;28;20063;-50
2022/01/04 13:41:03;;;;;;;1.20;0.47;;;;;;;;;;5052481;28;20032;-50
2022/01/04 13:43:35;;;;;;;1.48;0.43;;;17.70;87.50;;;;;;5052405;28;20033;-53
2022/01/04 13:46:05;;;;;;;1.77;0.52;;;17.80;87.50;;;;;;5052739;28;20021;-49
2022/01/04 13:48:35;;;;;;;1.88;0.63;;;17.80;87.50;;;;;;5052352;28;20037;-50
2022/01/04 13:51:10;;;;;;;;;;;19.00;89.40;;;;;;5051527;28;20476;-50
2022/01/04 13:53:38;;;;;;;2.28;0.68;;;18.00;87.60;;;;;;5052336;28;19904;-51
2022/01/04 13:56:08;;;;;;;3.83;0.60;;;18.00;81.20;;;;;;5052267;28;20017;-50
2022/01/04 13:58:46;;;;;;;1.55;0.50;;;18.10;81.20;;;;;;5052509;28;20029;-49
2022/01/04 14:01:12;;;;;;;0.80;0.47;;;;;;;;;;5052147;28;20083;-49
2022/01/04 14:03:38;;;;;;;0.70;0.30;;;;;;;;;;5052091;28;20446;-50
2022/01/04 14:06:04;;;;;;;2.58;0.35;;;;;;;;;;5052178;28;20053;-49
2022/01/04 14:08:49;;;;;;;2.42;0.60;;;18.30;80.20;;;;;;5052157;28;20106;-50
2022/01/04 14:11:25;;;;;;;1.38;0.68;;;18.30;80.20;;;;;;5052444;28;20025;-47
2022/01/04 14:13:52;;;;;;;0.68;0.43;;;18.40;84.10;;;;;;5052204;28;20472;-49
2022/01/04 14:16:19;;;;;;;1.83;0.60;;;18.40;86.20;;;;;;5053677;28;20127;-49
2022/01/04 14:19:22;;;;;;;1.35;0.50;;;18.50;80.10;;;;;;5056291;28;20067;-47
2022/01/04 14:22:03;;;;;;;3.25;0.50;;;18.50;79.80;;;;;;4994439;28;20034;-50